createdAt,value
2018-05-15T00:01:58.047Z,71.77
2018-05-15T00:04:31.029Z,70.03
2018-05-15T00:06:59.853Z,76.87
2018-05-15T00:09:32.403Z,76.30
2018-05-15T00:12:02.407Z,78.87
2018-05-15T00:14:37.257Z,76.27
2018-05-15T00:17:06.619Z,75.27
2018-05-15T00:19:38.715Z,79.87
2018-05-15T00:22:08.387Z,75.07
2018-05-15T00:24:41.143Z,76.87
2018-05-15T00:27:10.850Z,76.57
2018-05-15T00:29:42.059Z,79.37
2018-05-15T00:32:11.312Z,76.47
2018-05-15T00:34:53.072Z,78.90
2018-05-15T00:37:22.618Z,77.30
2018-05-15T00:39:52.254Z,77.67
2018-05-15T00:42:20.962Z,76.83
2018-05-15T00:44:50.738Z,80.97
2018-05-15T00:47:19.235Z,78.07
2018-05-15T00:49:51.978Z,78.83
2018-05-15T00:52:21.246Z,78.67
2018-05-15T00:54:59.506Z,81.97
2018-05-15T00:57:28.050Z,81.10
2018-05-15T00:59:57.960Z,80.33
2018-05-15T01:02:27.677Z,77.83
2018-05-15T01:04:59.696Z,83.30
2018-05-15T01:07:29.479Z,83.60
2018-05-15T01:10:02.263Z,81.57
2018-05-15T01:12:31.222Z,81.23
2018-05-15T01:15:03.355Z,87.23
2018-05-15T01:17:32.855Z,85.67
2018-05-15T01:20:07.282Z,83.23
2018-05-15T01:22:36.564Z,83.47
2018-05-15T01:25:11.136Z,84.10
2018-05-15T01:27:39.934Z,86.30
2018-05-15T01:30:12.589Z,86.17
2018-05-15T01:32:41.094Z,84.50
2018-05-15T01:35:15.122Z,88.47
2018-05-15T01:37:44.787Z,86.37
2018-05-15T01:40:17.595Z,86.20
2018-05-15T01:42:48.822Z,84.73
2018-05-15T01:45:19.142Z,88.20
2018-05-15T01:47:48.798Z,89.47
2018-05-15T01:50:21.240Z,91.67
2018-05-15T01:52:50.037Z,88.70
2018-05-15T01:55:22.558Z,90.43
2018-05-15T01:57:52.542Z,90.53
2018-05-15T02:00:26.026Z,92.67
2018-05-15T02:02:55.598Z,89.70
2018-05-15T02:05:28.341Z,93.37
2018-05-15T02:07:57.642Z,92.37
2018-05-15T02:10:28.550Z,90.37
2018-05-15T02:12:58.362Z,89.87
2018-05-15T02:15:40.331Z,91.40
2018-05-15T02:18:09.288Z,93.27
2018-05-15T02:20:38.551Z,92.60
2018-05-15T02:23:07.443Z,94.33
2018-05-15T02:25:36.307Z,96.20
2018-05-15T02:28:05.194Z,91.27
2018-05-15T02:30:42.382Z,95.87
2018-05-15T02:33:12.008Z,93.50
2018-05-15T02:35:40.496Z,95.87
2018-05-15T02:38:09.994Z,92.73
2018-05-15T02:40:43.104Z,97.60
2018-05-15T02:43:11.614Z,95.93
2018-05-15T02:45:44.561Z,94.80
2018-05-15T02:48:13.355Z,95.17
2018-05-15T02:50:47.611Z,96.63
2018-05-15T02:53:17.747Z,97.33
2018-05-15T02:55:50.985Z,97.30
2018-05-15T02:58:20.251Z,96.43
2018-05-15T03:01:01.900Z,98.07
2018-05-15T03:03:30.847Z,95.83
2018-05-15T03:06:01.044Z,101.73
2018-05-15T03:08:30.550Z,104.07
2018-05-15T03:11:00.060Z,100.40
2018-05-15T03:13:30.088Z,101.47
2018-05-15T03:16:00.869Z,103.77
2018-05-15T03:18:30.218Z,105.87
2018-05-15T03:21:03.335Z,103.63
2018-05-15T03:23:32.071Z,105.20
2018-05-15T03:26:05.502Z,102.07
2018-05-15T03:28:34.078Z,106.17
2018-05-15T03:31:07.650Z,106.33
2018-05-15T03:33:37.169Z,99.67
2018-05-15T03:36:19.073Z,105.53
2018-05-15T03:38:48.250Z,103.63
2018-05-15T03:41:18.118Z,101.27
2018-05-15T03:43:46.646Z,105.67
2018-05-15T03:46:16.662Z,102.50
2018-05-15T03:48:46.202Z,103.60
2018-05-15T03:51:19.478Z,101.67
2018-05-15T03:53:48.172Z,105.27
2018-05-15T03:56:21.218Z,102.90
2018-05-15T03:58:51.220Z,101.63
2018-05-15T04:03:40.976Z,101.47
2018-05-15T04:06:25.523Z,99.77
2018-05-15T04:08:54.351Z,96.53
2018-05-15T04:11:28.313Z,97.53
2018-05-15T04:13:58.315Z,92.67
2018-05-15T04:16:30.902Z,101.10
2018-05-15T04:19:01.460Z,98.33
2018-05-15T04:21:31.759Z,99.00
2018-05-15T04:24:00.608Z,91.23
2018-05-15T04:26:33.265Z,94.03
2018-05-15T04:29:02.820Z,87.93
2018-05-15T04:31:36.223Z,88.00
2018-05-15T04:34:06.280Z,84.70
2018-05-15T04:36:37.600Z,86.53
2018-05-15T04:39:07.661Z,88.80
2018-05-15T04:41:41.410Z,84.43
2018-05-15T04:44:11.139Z,83.10
2018-05-15T04:46:42.991Z,87.67
2018-05-15T04:49:11.916Z,85.27
2018-05-15T04:51:45.715Z,85.33
2018-05-15T04:54:15.207Z,81.10
2018-05-15T04:56:48.430Z,81.63
2018-05-15T04:59:16.905Z,83.23
2018-05-15T05:01:58.251Z,81.33
2018-05-15T05:04:27.067Z,81.57
2018-05-15T05:06:56.352Z,79.83
2018-05-15T05:09:25.614Z,82.13
2018-05-15T05:11:55.434Z,80.83
2018-05-15T05:14:24.318Z,79.13
2018-05-15T05:16:58.053Z,80.27
2018-05-15T05:19:27.550Z,79.17
2018-05-15T05:22:00.601Z,78.97
2018-05-15T05:24:29.075Z,76.63
2018-05-15T05:27:02.376Z,76.40
2018-05-15T05:29:31.725Z,75.27
2018-05-15T05:32:05.382Z,76.93
2018-05-15T05:34:35.271Z,79.07
2018-05-15T05:37:09.667Z,77.93
2018-05-15T05:39:38.191Z,71.77
2018-05-15T05:42:11.256Z,72.33
2018-05-15T05:44:40.135Z,71.30
2018-05-15T05:47:13.431Z,68.00
2018-05-15T05:49:42.000Z,68.07
2018-05-15T05:52:17.590Z,67.10
2018-05-15T05:54:46.734Z,62.80
2018-05-15T05:57:19.506Z,62.70
2018-05-15T05:59:49.419Z,62.30
2018-05-15T06:02:21.316Z,58.30
2018-05-15T06:04:51.259Z,56.20
2018-05-15T06:07:22.920Z,56.30
2018-05-15T06:09:52.240Z,57.93
2018-05-15T06:12:24.676Z,55.83
2018-05-15T06:14:54.548Z,52.20
2018-05-15T06:17:35.401Z,50.10
2018-05-15T06:20:04.435Z,50.73
2018-05-15T06:22:34.034Z,49.73
2018-05-15T06:25:02.935Z,51.83
2018-05-15T06:27:31.544Z,50.77
2018-05-15T06:30:00.757Z,52.30
2018-05-15T06:32:33.555Z,53.33
2018-05-15T06:35:02.803Z,50.80
2018-05-15T06:37:44.425Z,51.90
2018-05-15T06:40:13.215Z,50.80
2018-05-15T06:42:43.216Z,51.60
2018-05-15T06:45:12.863Z,48.70
2018-05-15T06:47:42.382Z,51.53
2018-05-15T06:50:11.679Z,48.97
2018-05-15T06:52:43.665Z,47.57
2018-05-15T06:55:13.923Z,46.40
2018-05-15T06:57:45.815Z,46.47
2018-05-15T07:00:15.830Z,47.10
2018-05-15T07:02:48.189Z,47.67
2018-05-15T07:05:17.500Z,47.27
2018-05-15T07:07:59.454Z,39.42
2018-05-15T07:10:28.237Z,37.67
2018-05-15T07:12:57.181Z,36.65
2018-05-15T07:15:25.755Z,37.65
2018-05-15T07:17:54.609Z,35.97
2018-05-15T07:20:23.079Z,38.85
2018-05-15T07:22:56.304Z,38.92
2018-05-15T07:25:26.362Z,35.60
2018-05-15T07:27:59.470Z,37.20
2018-05-15T07:30:28.023Z,34.67
2018-05-15T07:33:01.003Z,30.70
2018-05-15T07:35:38.961Z,19.80
2018-05-15T07:38:08.223Z,16.87
2018-05-15T07:40:37.809Z,18.23
2018-05-15T07:43:07.729Z,18.73
2018-05-15T07:45:36.537Z,19.17
2018-05-15T07:48:11.024Z,20.10
2018-05-15T07:50:39.688Z,18.57
2018-05-15T07:53:15.634Z,18.33
2018-05-15T07:55:44.175Z,18.50
2018-05-15T07:58:16.659Z,19.87
2018-05-15T08:00:45.906Z,19.10
2018-05-15T08:03:17.987Z,20.20
2018-05-15T08:05:47.047Z,19.77
2018-05-15T08:08:19.964Z,19.23
2018-05-15T08:10:51.108Z,19.07
2018-05-15T08:13:23.934Z,18.50
2018-05-15T08:15:53.526Z,18.13
2018-05-15T08:18:26.222Z,17.97
2018-05-15T08:20:54.707Z,18.40
2018-05-15T08:23:27.050Z,17.62
2018-05-15T08:25:56.690Z,18.30
2018-05-15T08:28:29.545Z,17.98
2018-05-15T08:30:59.006Z,18.42
2018-05-15T08:33:40.026Z,16.37
2018-05-15T08:36:08.887Z,17.75
2018-05-15T08:38:37.813Z,16.48
2018-05-15T08:41:06.355Z,17.08
2018-05-15T08:43:35.351Z,18.00
2018-05-15T08:46:04.853Z,16.08
2018-05-15T08:48:38.971Z,16.75
2018-05-15T08:51:10.986Z,17.75
2018-05-15T08:53:41.447Z,16.35
2018-05-15T08:56:11.234Z,16.42
2018-05-15T08:58:42.974Z,16.12
2018-05-15T09:01:12.260Z,12.57
2018-05-15T09:03:45.886Z,6.10
2018-05-15T09:06:14.538Z,5.65
2018-05-15T09:08:48.097Z,5.20
2018-05-15T09:11:17.756Z,5.35
2018-05-15T09:13:51.574Z,5.90
2018-05-15T09:16:20.838Z,6.22
2018-05-15T09:18:53.359Z,5.80
2018-05-15T09:34:30.194Z,6.07
2018-05-15T09:37:02.635Z,5.23
2018-05-15T09:39:32.530Z,6.00
2018-05-15T09:42:13.634Z,5.60
2018-05-15T09:44:43.642Z,5.83
2018-05-15T09:47:13.746Z,6.17
2018-05-15T09:49:43.122Z,5.40
2018-05-15T09:52:12.282Z,5.50
2018-05-15T09:54:41.631Z,5.50
2018-05-15T09:57:12.650Z,5.57
2018-05-15T09:59:42.322Z,5.77
2018-05-15T10:02:23.362Z,5.20
2018-05-15T10:04:52.309Z,5.90
2018-05-15T10:07:21.825Z,5.40
2018-05-15T10:09:51.919Z,5.43
2018-05-15T10:12:21.918Z,5.80
2018-05-15T10:14:51.177Z,5.90
2018-05-15T10:17:20.830Z,5.90
2018-05-15T10:19:51.196Z,6.13
2018-05-15T10:22:25.848Z,6.03
2018-05-15T10:24:58.803Z,5.43
2018-05-15T10:27:27.398Z,6.00
2018-05-15T10:29:56.342Z,5.50
2018-05-15T10:32:27.579Z,5.37
2018-05-15T10:34:57.094Z,6.53
2018-05-15T10:37:29.420Z,5.97
2018-05-15T10:39:59.471Z,6.13
2018-05-15T10:42:40.805Z,6.17
2018-05-15T10:45:09.988Z,5.93
2018-05-15T10:47:38.505Z,6.00
2018-05-15T10:50:07.475Z,6.20
2018-05-15T10:52:36.999Z,6.57
2018-05-15T10:55:05.999Z,5.90
2018-05-15T10:57:47.755Z,5.87
2018-05-15T11:00:16.699Z,5.73
2018-05-15T11:02:46.901Z,6.63
2018-05-15T11:05:15.874Z,6.23
2018-05-15T11:07:45.345Z,6.37
2018-05-15T11:10:15.273Z,5.63
2018-05-15T11:12:47.535Z,6.80
2018-05-15T11:15:17.446Z,6.87
2018-05-15T11:17:49.086Z,6.83
2018-05-15T11:22:29.558Z,6.73
2018-05-15T11:24:59.200Z,6.83
2018-05-15T11:27:29.105Z,7.30
2018-05-15T11:29:58.890Z,7.30
2018-05-15T11:32:31.414Z,7.10
2018-05-15T11:35:02.009Z,6.83
2018-05-15T11:37:34.968Z,6.43
2018-05-15T11:40:06.171Z,6.57
2018-05-15T11:42:36.109Z,6.03
2018-05-15T11:45:04.680Z,6.10
2018-05-15T11:47:34.384Z,6.17
2018-05-15T11:50:06.636Z,5.53
2018-05-15T11:52:35.444Z,5.90
2018-05-15T11:55:08.567Z,6.07
2018-05-15T11:57:39.083Z,5.93
2018-05-15T12:00:20.760Z,6.33
2018-05-15T12:02:50.334Z,6.10
2018-05-15T12:05:19.236Z,5.57
2018-05-15T12:07:49.254Z,5.80
2018-05-15T12:10:19.266Z,6.05
2018-05-15T12:12:47.968Z,6.27
2018-05-15T12:15:17.352Z,5.80
2018-05-15T12:17:47.303Z,5.77
2018-05-15T12:20:19.856Z,6.20
2018-05-15T12:22:50.088Z,5.77
2018-05-15T12:25:21.235Z,6.00
2018-05-15T12:27:51.622Z,5.87
2018-05-15T12:30:24.104Z,6.07
2018-05-15T12:32:53.938Z,6.13
2018-05-15T12:35:26.907Z,6.00
2018-05-15T12:37:56.255Z,5.97
2018-05-15T12:40:29.854Z,5.60
2018-05-15T12:42:59.731Z,5.43
2018-05-15T12:45:31.891Z,5.53
2018-05-15T12:48:01.575Z,5.82
2018-05-15T12:50:33.636Z,5.37
2018-05-15T12:53:02.232Z,5.60
2018-05-15T12:55:35.115Z,6.27
2018-05-15T12:58:05.114Z,5.85
2018-05-15T13:00:46.611Z,5.80
2018-05-15T13:03:16.299Z,5.53
2018-05-15T13:05:46.412Z,5.63
2018-05-15T13:08:16.181Z,5.50
2018-05-15T13:10:44.859Z,5.20
2018-05-15T13:13:14.851Z,4.97
2018-05-15T13:15:46.882Z,5.20
2018-05-15T13:18:16.437Z,5.27
2018-05-15T13:20:48.744Z,5.00
2018-05-15T13:23:18.295Z,4.47
2018-05-15T13:25:49.789Z,4.77
2018-05-15T13:28:19.911Z,4.93
2018-05-15T13:30:52.294Z,4.63
2018-05-15T13:33:21.871Z,5.10
2018-05-15T13:35:56.254Z,4.70
2018-05-15T13:38:25.999Z,4.45
2018-05-15T13:41:09.944Z,4.57
2018-05-15T13:43:38.855Z,4.57
2018-05-15T13:59:13.044Z,4.45
2018-05-15T14:01:42.658Z,4.55
2018-05-15T14:04:12.094Z,4.17
2018-05-15T14:06:41.925Z,3.90
2018-05-15T14:09:15.176Z,4.28
2018-05-15T14:24:59.369Z,4.72
2018-05-15T14:27:27.899Z,4.75
2018-05-15T14:29:57.346Z,4.73
2018-05-15T14:32:26.923Z,4.47
2018-05-15T14:34:56.552Z,4.70
2018-05-15T14:37:26.709Z,4.77
2018-05-15T14:39:56.283Z,4.90
2018-05-15T14:43:41.524Z,4.83
2018-05-15T14:46:11.078Z,5.00
2018-05-15T14:48:40.292Z,4.60
2018-05-15T14:51:15.492Z,5.50
2018-05-15T14:53:45.041Z,5.33
2018-05-15T14:56:15.193Z,5.53
2018-05-15T14:58:44.051Z,4.47
2018-05-15T15:01:13.671Z,4.25
2018-05-15T15:03:42.908Z,4.63
2018-05-15T15:06:12.502Z,5.00
2018-05-15T15:08:42.639Z,4.77
2018-05-15T15:11:12.463Z,4.68
2018-05-15T15:13:43.571Z,4.70
2018-05-15T15:16:13.152Z,5.20
2018-05-15T15:18:46.043Z,5.70
2018-05-15T15:21:14.970Z,6.07
2018-05-15T15:23:56.870Z,5.23
2018-05-15T15:26:26.536Z,5.67
2018-05-15T15:28:56.170Z,5.17
2018-05-15T15:31:27.935Z,5.30
2018-05-15T15:33:57.460Z,5.33
2018-05-15T15:36:26.708Z,4.53
2018-05-15T15:38:56.230Z,4.70
2018-05-15T15:41:26.954Z,5.50
2018-05-15T15:43:59.432Z,4.80
2018-05-15T15:46:29.813Z,5.23
2018-05-15T15:49:00.883Z,5.40
2018-05-15T15:51:30.437Z,5.17
2018-05-15T15:54:03.253Z,5.00
2018-05-15T15:56:33.220Z,4.93
2018-05-15T15:59:06.262Z,5.47
2018-05-15T16:01:35.858Z,5.70
2018-05-15T16:04:16.907Z,4.77
2018-05-15T16:06:46.340Z,4.90
2018-05-15T16:09:15.954Z,5.60
2018-05-15T16:11:45.530Z,5.87
2018-05-15T16:14:15.334Z,5.60
2018-05-15T16:16:44.584Z,5.33
2018-05-15T16:19:16.865Z,5.20
2018-05-15T16:21:46.706Z,6.00
2018-05-15T16:24:19.258Z,6.53
2018-05-15T16:26:47.795Z,5.67
2018-05-15T16:29:21.178Z,5.27
2018-05-15T16:31:49.669Z,5.63
2018-05-15T16:34:23.815Z,4.83
2018-05-15T16:36:53.066Z,5.37
2018-05-15T16:41:54.075Z,5.00
2018-05-15T16:44:35.307Z,4.87
2018-05-15T16:47:03.930Z,5.03
2018-05-15T16:49:32.697Z,4.93
2018-05-15T16:52:02.769Z,4.63
2018-05-15T16:54:32.437Z,4.57
2018-05-15T16:57:01.863Z,4.70
2018-05-15T16:59:44.033Z,5.37
2018-05-15T17:02:12.899Z,4.80
2018-05-15T17:04:41.397Z,4.87
2018-05-15T17:07:09.906Z,4.90
2018-05-15T17:09:39.406Z,4.93
2018-05-15T17:12:08.730Z,5.00
2018-05-15T17:14:41.643Z,4.70
2018-05-15T17:17:10.918Z,4.80
2018-05-15T17:19:52.377Z,4.97
2018-05-15T17:22:21.503Z,4.70
2018-05-15T17:24:51.144Z,4.23
2018-05-15T17:27:20.764Z,5.37
2018-05-15T17:29:49.908Z,4.93
2018-05-15T17:32:18.416Z,4.73
2018-05-15T17:34:59.916Z,4.60
2018-05-15T17:37:28.718Z,4.37
2018-05-15T17:39:57.209Z,5.40
2018-05-15T17:42:26.239Z,5.03
2018-05-15T17:44:56.080Z,5.50
2018-05-15T17:47:24.637Z,5.57
2018-05-15T17:49:57.538Z,5.93
2018-05-15T17:52:27.067Z,5.87
2018-05-15T17:55:03.249Z,5.23
2018-05-15T17:57:32.482Z,5.87
2018-05-15T18:00:05.261Z,5.87
2018-05-15T18:02:34.519Z,5.90
2018-05-15T18:05:06.519Z,5.70
2018-05-15T18:07:36.419Z,5.07
2018-05-15T18:10:18.347Z,6.07
2018-05-15T18:12:47.888Z,5.70
2018-05-15T18:15:17.910Z,4.97
2018-05-15T18:17:46.891Z,5.63
2018-05-15T18:20:16.994Z,5.37
2018-05-15T18:22:46.990Z,6.13
2018-05-15T18:25:16.537Z,5.60
2018-05-15T18:27:46.840Z,5.70
2018-05-15T18:30:19.516Z,5.27
2018-05-15T18:32:48.511Z,5.90
2018-05-15T18:35:31.221Z,5.70
2018-05-15T18:38:00.462Z,6.30
2018-05-15T18:40:29.165Z,5.73
2018-05-15T18:42:58.916Z,5.87
2018-05-15T18:45:28.837Z,6.10
2018-05-15T18:47:57.240Z,5.50
2018-05-15T18:50:28.210Z,5.57
2018-05-15T18:52:57.832Z,6.00
2018-05-15T18:55:31.359Z,5.53
2018-05-15T18:58:01.331Z,5.33
2018-05-15T19:00:37.017Z,5.93
2018-05-15T19:03:06.645Z,5.77
2018-05-15T19:05:38.589Z,5.10
2018-05-15T19:08:08.606Z,5.60
2018-05-15T19:10:37.943Z,4.90
2018-05-15T19:13:06.447Z,5.70
2018-05-15T19:15:47.603Z,5.70
2018-05-15T19:18:16.142Z,5.57
2018-05-15T19:20:46.600Z,5.70
2018-05-15T19:23:16.116Z,6.40
2018-05-15T19:25:44.811Z,5.87
2018-05-15T19:28:14.459Z,6.33
2018-05-15T19:30:47.338Z,8.50
2018-05-15T19:33:17.058Z,6.07
2018-05-15T19:35:49.589Z,5.93
2018-05-15T19:38:18.051Z,5.57
2018-05-15T19:40:53.127Z,5.30
2018-05-15T19:43:22.377Z,5.83
2018-05-15T19:45:54.452Z,5.43
2018-05-15T19:48:23.319Z,5.23
2018-05-15T19:50:56.013Z,5.77
2018-05-15T19:53:25.258Z,5.37
2018-05-15T19:56:06.588Z,5.67
2018-05-15T19:58:36.373Z,6.80
2018-05-15T20:01:05.871Z,6.13
2018-05-15T20:03:34.751Z,6.87
2018-05-15T20:06:03.570Z,6.47
2018-05-15T20:08:33.170Z,6.50
2018-05-15T20:11:15.671Z,6.00
2018-05-15T20:13:44.197Z,5.53
2018-05-15T20:16:12.870Z,6.43
2018-05-15T20:18:41.387Z,6.57
2018-05-15T20:21:13.832Z,6.97
2018-05-15T20:23:43.654Z,6.17
2018-05-15T20:26:15.483Z,7.20
2018-05-15T20:28:46.724Z,7.07
2018-05-15T20:31:16.603Z,8.10
2018-05-15T20:33:46.110Z,7.50
2018-05-15T20:36:18.796Z,7.03
2018-05-15T20:38:48.415Z,7.87
2018-05-15T20:41:20.381Z,7.23
2018-05-15T20:43:50.444Z,6.30
2018-05-15T20:46:22.903Z,7.30
2018-05-15T20:48:52.377Z,6.43
2018-05-15T20:51:24.611Z,6.93
2018-05-15T20:53:53.884Z,7.10
2018-05-15T20:56:35.364Z,7.33
2018-05-15T20:59:04.107Z,6.97
2018-05-15T21:01:32.908Z,8.30
2018-05-15T21:04:02.010Z,8.00
2018-05-15T21:06:31.605Z,7.73
2018-05-15T21:09:00.098Z,7.37
2018-05-15T21:11:33.196Z,6.80
2018-05-15T21:14:02.834Z,6.83
2018-05-15T21:16:44.465Z,6.60
2018-05-15T21:19:14.136Z,6.23
2018-05-15T21:21:43.074Z,6.93
2018-05-15T21:24:12.785Z,6.97
2018-05-15T21:26:42.500Z,7.90
2018-05-15T21:29:11.419Z,7.20
2018-05-15T21:31:53.839Z,6.70
2018-05-15T21:34:23.071Z,7.23
2018-05-15T21:36:51.765Z,7.23
2018-05-15T21:39:21.400Z,7.13
2018-05-15T21:41:51.594Z,7.30
2018-05-15T21:44:21.639Z,6.63
2018-05-15T21:46:51.251Z,6.93
2018-05-15T21:49:20.768Z,7.27
2018-05-15T21:51:53.583Z,7.23
2018-05-15T21:54:22.482Z,7.80
2018-05-15T21:56:55.123Z,7.70
2018-05-15T21:59:24.637Z,7.30
2018-05-15T22:01:58.084Z,7.50
2018-05-15T22:04:28.631Z,7.17
2018-05-15T22:07:00.395Z,6.77
2018-05-15T22:09:30.685Z,7.43
2018-05-15T22:12:18.490Z,7.43
2018-05-15T22:15:03.294Z,8.03
2018-05-15T22:17:38.718Z,8.07
2018-05-15T22:20:15.223Z,8.40
2018-05-15T22:22:43.275Z,7.43
2018-05-15T22:25:12.656Z,7.27
2018-05-15T22:27:41.589Z,8.53
2018-05-15T22:30:13.115Z,7.80
2018-05-15T22:32:42.811Z,7.93
2018-05-15T22:35:24.797Z,8.37
2018-05-15T22:37:54.371Z,8.23
2018-05-15T22:40:22.904Z,8.60
2018-05-15T22:42:52.169Z,8.33
2018-05-15T22:45:21.726Z,8.23
2018-05-15T22:47:50.996Z,8.70
2018-05-15T22:50:23.096Z,8.27
2018-05-15T22:52:52.641Z,7.87
2018-05-15T22:55:24.864Z,8.30
2018-05-15T22:57:53.567Z,8.63
2018-05-15T23:00:26.809Z,8.37
2018-05-15T23:02:56.423Z,8.30
2018-05-15T23:05:28.180Z,8.40
2018-05-15T23:07:57.691Z,8.27
2018-05-15T23:10:29.624Z,8.93
2018-05-15T23:12:58.104Z,8.77
2018-05-15T23:15:39.801Z,8.47
2018-05-15T23:18:09.728Z,9.03
2018-05-15T23:20:38.611Z,8.97
2018-05-15T23:23:07.546Z,9.60
2018-05-15T23:25:37.173Z,8.57
2018-05-15T23:28:07.120Z,9.07
2018-05-15T23:30:40.170Z,9.47
2018-05-15T23:33:09.528Z,9.93
2018-05-15T23:35:41.583Z,9.47
2018-05-15T23:38:11.352Z,8.73
2018-05-15T23:40:43.163Z,9.07
2018-05-15T23:43:12.063Z,10.13
2018-05-15T23:45:54.148Z,9.53
2018-05-15T23:48:22.854Z,9.40
2018-05-15T23:50:51.887Z,9.00
2018-05-15T23:53:21.593Z,9.80
2018-05-15T23:55:51.090Z,9.77
2018-05-15T23:58:21.424Z,9.00
